Terminal Aerodrome Forecast
Issued by NWS

Home | Current Version | Previous Version | Text Only | Print | Product List | Glossary On
Versions: 1 2 3 4 5 6 7 8 9 10 11 12 13 14 15 16 17 18 19
000
FTAK31 PANC 242346
TAFACD
TAF
PACD 242346Z 2500/2524 VRB06KT P6SM VCSH BKN025 OVC035
      TEMPO 2500/2503 SCT025 BKN035
     FM251500 34010KT P6SM -SHRA BKN015=

USA.gov is the U.S. government's official web portal to all federal, state and local government web resources and services.